Latest Weather Observations for Jervis Bay Airfield

IDN60801

Issued at 12:33 am EDT Monday 26 October 2020 (issued every 10 minutes, with the page automatically refreshed every 10 minutes)

About weather observations | Map of weather stations | Latest weather observations for NSW | Other Formats
Station Details ID: 068264 Name: JERVIS BAY AIRFIELD AWS Lat: -35.14 Lon: 150.70 Height: 57.18 m
Data from the previous 72 hours. | See also: Recent months at Jervis Bay Airfield
Date/Time
EDT
Temp
°C
App
Temp
°C
Dew
Point
°C
Rel
Hum
%
Delta-T
°C
Wind Press
QNH
hPa
Press
MSL
hPa
Rain since
9am
mm
Dir  Spd
km/h
Gust
km/h
Spd
kts
Gust
kts
26/12:30am 13.8 8.3 13.5 98 0.2 SSE 35 46 19 25 1019.2 1019.1 35.2
26/12:17am 13.7 7.7 13.4 98 0.2 SSE 37 56 20 30 1019.2 1019.1 35.0
26/12:00am 13.6 7.2 13.3 98 0.2 SSE 39 54 21 29 1019.6 1019.5 33.8
 
Date/Time
EDT
Temp
°C
App
Temp
°C
Dew
Point
°C
Rel
Hum
%
Delta-T
°C
Wind Press
QNH
hPa
Press
MSL
hPa
Rain since
9am
mm
Dir  Spd
km/h
Gust
km/h
Spd
kts
Gust
kts
25/11:54pm 13.8 8.3 13.5 98 0.2 SE 35 50 19 27 1019.7 1019.6 33.4
25/11:30pm 13.5 8.8 13.2 98 0.2 SSE 30 50 16 27 1019.9 1019.8 30.4
25/11:18pm 13.7 10.2 13.4 98 0.2 SE 24 50 13 27 1019.7 1019.6 27.2
25/11:00pm 13.8 8.6 13.5 98 0.2 SSE 33 44 18 24 1019.6 1019.5 21.4
25/10:30pm 13.6 9.3 13.3 98 0.2 SE 28 41 15 22 1019.6 1019.5 18.0
25/10:20pm 13.6 9.3 13.3 98 0.2 SSE 28 46 15 25 1019.5 1019.4 15.6
25/10:00pm 13.7 10.2 13.4 98 0.2 SSE 24 41 13 22 1019.5 1019.4 14.2
25/09:45pm 13.7 11.2 13.4 98 0.2 SSE 19 28 10 15 1019.4 1019.3 12.4
25/09:39pm 13.7 11.0 13.4 98 0.2 SSE 20 30 11 16 1019.4 1019.3 12.2
25/09:30pm 13.6 10.5 13.3 98 0.2 SSE 22 33 12 18 1019.4 1019.3 11.8
25/09:15pm 13.7 11.2 13.4 98 0.2 SSE 19 28 10 15 1019.2 1019.1 10.8
25/09:00pm 13.4 10.5 12.9 97 0.3 SSE 20 35 11 19 1019.0 1019.0 10.0
25/08:30pm 13.3 9.6 12.8 97 0.3 SSE 24 33 13 18 1018.5 1018.4 9.0
25/08:00pm 13.4 9.8 12.9 97 0.3 SSE 24 39 13 21 1018.2 1018.1 8.2
25/07:30pm 13.1 9.1 11.8 92 0.7 SSE 24 32 13 17 1018.0 1017.9 7.0
25/07:22pm 13.0 10.6 12.5 97 0.3 SSE 17 24 9 13 1017.9 1017.8 6.6
25/07:02pm 13.0 10.1 12.4 96 0.3 SSE 19 28 10 15 1017.8 1017.7 5.4
25/07:00pm 13.0 10.1 12.2 95 0.4 SSE 19 28 10 15 1017.8 1017.7 5.2
25/06:30pm 13.9 11.0 10.9 82 1.6 SSE 17 24 9 13 1017.2 1017.1 4.4
25/06:00pm 14.1 12.1 13.8 98 0.2 SSW 17 28 9 15 1016.6 1016.5 4.4
25/05:42pm 13.8 10.7 13.5 98 0.2 S 22 32 12 17 1016.2 1016.1 4.4
25/05:30pm 13.3 9.7 13.0 98 0.2 SSW 24 35 13 19 1016.0 1015.9 4.2
25/05:27pm 13.2 9.6 12.9 98 0.2 SSW 24 37 13 20 1016.0 1015.9 4.2
25/05:00pm 13.5 9.2 13.2 98 0.2 S 28 41 15 22 1016.0 1015.9 3.4
25/04:53pm 13.6 9.3 13.3 98 0.2 S 28 43 15 23 1016.0 1015.9 3.4
25/04:30pm 12.9 8.4 12.6 98 0.2 SSW 28 46 15 25 1015.2 1015.1 3.2
25/04:04pm 12.4 7.0 12.1 98 0.2 SSW 32 48 17 26 1015.0 1014.9 3.2
25/04:00pm 12.6 7.2 12.3 98 0.2 SSW 32 44 17 24 1014.9 1014.8 3.2
25/03:34pm 11.6 6.3 11.3 98 0.2 SSW 30 48 16 26 1015.2 1015.1 3.0
25/03:30pm 11.7 6.8 11.4 98 0.2 SSW 28 39 15 21 1015.4 1015.3 3.0
25/03:00pm 11.6 6.3 11.3 98 0.2 SSW 30 46 16 25 1015.4 1015.3 2.6
25/02:30pm 11.6 6.7 11.3 98 0.2 SSW 28 44 15 24 1015.5 1015.4 1.8
25/02:00pm 11.3 6.7 11.0 98 0.2 SW 26 37 14 20 1015.9 1015.8 1.2
25/01:30pm 11.5 6.1 11.0 97 0.3 SSW 30 41 16 22 1015.9 1015.8 1.0
25/01:00pm 11.5 6.1 11.0 97 0.3 SSW 30 41 16 22 1015.6 1015.5 1.0
25/12:30pm 11.3 6.3 11.0 98 0.2 SW 28 44 15 24 1015.5 1015.4 1.0
25/12:00pm 11.1 5.7 10.8 98 0.2 SSW 30 43 16 23 1015.5 1015.4 1.0
25/11:34am 11.2 5.7 10.7 97 0.3 SSW 30 41 16 22 1015.7 1015.6 0.6
25/11:30am 11.2 5.4 10.7 97 0.3 SSW 32 44 17 24 1015.6 1015.5 0.4
25/11:06am 11.2 5.3 10.4 95 0.4 SSW 32 43 17 23 1015.6 1015.5 0.0
25/11:00am 11.5 6.0 10.6 94 0.5 SSW 30 46 16 25 1015.6 1015.5 0.0
25/10:30am 12.2 6.1 9.9 86 1.2 SSW 32 46 17 25 1015.2 1015.1 0.0
25/10:10am 12.7 6.5 9.3 80 1.7 SSW 32 50 17 27 1014.9 1014.8 0.0
25/10:00am 13.0 6.1 8.7 75 2.2 SSW 35 46 19 25 1014.7 1014.6 0.0
25/09:30am 13.1 6.8 8.8 75 2.2 SSW 32 46 17 25 1014.6 1014.5 0.0
25/09:00am 13.0 6.0 8.5 74 2.2 SSW 35 50 19 27 1014.4 1014.3 13.6
25/08:30am 12.9 5.9 8.4 74 2.2 SSW 35 50 19 27 1013.9 1013.8 13.6
25/08:03am 12.7 5.6 8.2 74 2.2 SSW 35 54 19 29 1013.5 1013.4 13.6
25/08:00am 12.8 6.4 8.7 76 2.1 SSW 32 46 17 25 1013.5 1013.4 13.6
25/07:53am 12.9 6.6 8.8 76 2.1 SSW 32 50 17 27 1013.2 1013.1 13.6
25/07:30am 12.9 5.9 8.6 75 2.2 SSW 35 50 19 27 1012.6 1012.5 13.6
25/07:01am 13.0 5.7 8.7 75 2.2 S 37 56 20 30 1012.2 1012.1 13.6
25/07:00am 13.0 6.1 8.9 76 2.1 S 35 48 19 26 1012.1 1012.0 13.6
25/06:33am 13.1 6.6 9.0 76 2.1 SSW 33 54 18 29 1011.7 1011.6 13.6
25/06:30am 13.1 6.4 9.5 79 1.8 SSW 35 52 19 28 1011.8 1011.7 13.6
25/06:00am 13.1 6.6 10.5 84 1.4 S 35 50 19 27 1011.0 1010.9 13.6
25/05:30am 13.0 7.1 11.1 88 1.0 S 33 46 18 25 1010.5 1010.4 13.6
25/05:00am 12.5 6.8 11.7 95 0.4 S 33 43 18 23 1010.1 1010.0 13.4
25/04:48am 12.4 7.6 11.8 96 0.3 S 28 43 15 23 1009.9 1009.8 13.4
25/04:30am 12.1 7.0 11.8 98 0.2 S 30 43 16 23 1009.6 1009.5 13.4
25/04:18am 12.2 7.5 11.9 98 0.2 S 28 39 15 21 1009.6 1009.5 13.4
25/04:15am 12.1 6.6 11.8 98 0.2 S 32 43 17 23 1009.6 1009.5 13.4
25/04:05am 12.2 7.5 11.9 98 0.2 SSW 28 39 15 21 1009.4 1009.3 13.4
25/04:00am 12.2 7.9 11.9 98 0.2 S 26 35 14 19 1009.4 1009.3 13.4
25/03:49am 12.1 7.0 11.8 98 0.2 S 30 39 16 21 1009.3 1009.2 13.2
25/03:30am 12.0 6.8 11.7 98 0.2 S 30 41 16 22 1009.3 1009.2 13.0
25/03:00am 12.6 7.1 12.3 98 0.2 S 33 48 18 26 1009.1 1009.0 12.4
25/02:46am 12.3 7.6 12.0 98 0.2 SSW 28 46 15 25 1008.9 1008.8 12.2
25/02:30am 12.5 7.9 12.2 98 0.2 SSW 28 41 15 22 1008.7 1008.6 11.8
25/02:20am 12.6 7.2 12.3 98 0.2 SSW 32 43 17 23 1008.7 1008.6 11.8
25/02:00am 12.7 7.4 12.4 98 0.2 S 32 43 17 23 1008.6 1008.5 11.8
25/01:57am 12.6 7.6 12.3 98 0.2 S 30 43 16 23 1008.6 1008.5 11.8
25/01:30am 12.6 7.1 12.3 98 0.2 S 33 52 18 28 1008.4 1008.3 11.8
25/01:05am 12.6 7.2 12.3 98 0.2 SSW 32 50 17 27 1008.2 1008.1 11.6
25/01:00am 12.6 7.6 12.3 98 0.2 SSW 30 41 16 22 1008.3 1008.2 11.6
25/12:47am 12.8 7.9 12.5 98 0.2 SSW 30 48 16 26 1008.3 1008.2 11.4
25/12:42am 12.8 6.9 12.3 97 0.3 SSW 35 48 19 26 1008.2 1008.1 11.4
25/12:36am 13.0 6.8 12.5 97 0.3 S 37 48 20 26 1008.2 1008.1 11.4
25/12:31am 13.1 7.3 12.6 97 0.3 SSW 35 52 19 28 1008.1 1008.0 11.4
25/12:30am 13.1 7.6 12.6 97 0.3 SSW 33 52 18 28 1008.1 1008.0 11.4
25/12:23am 12.9 7.4 12.6 98 0.2 SSW 33 52 18 28 1008.0 1007.9 11.4
25/12:17am 12.9 7.0 12.4 97 0.3 S 35 48 19 26 1008.0 1007.9 11.4
25/12:12am 13.1 7.3 12.6 97 0.3 S 35 48 19 26 1008.1 1008.0 11.4
25/12:00am 13.0 7.6 12.7 98 0.2 SSW 33 48 18 26 1008.1 1008.0 11.4
 
Date/Time
EDT
Temp
°C
App
Temp
°C
Dew
Point
°C
Rel
Hum
%
Delta-T
°C
Wind Press
QNH
hPa
Press
MSL
hPa
Rain since
9am
mm
Dir  Spd
km/h
Gust
km/h
Spd
kts
Gust
kts
24/11:53pm 13.0 7.5 12.5 97 0.3 SSW 33 46 18 25 1007.9 1007.8 11.4
24/11:30pm 13.7 8.4 13.2 97 0.3 SSW 33 46 18 25 1007.6 1007.5 11.4
24/11:01pm 13.7 8.1 13.4 98 0.2 S 35 50 19 27 1007.5 1007.4 11.4
24/11:00pm 13.7 8.1 13.4 98 0.2 S 35 50 19 27 1007.5 1007.4 11.2
24/10:48pm 13.6 8.4 13.3 98 0.2 S 33 54 18 29 1007.3 1007.2 11.0
24/10:40pm 13.6 8.4 13.3 98 0.2 S 33 43 18 23 1007.4 1007.3 11.0
24/10:34pm 13.5 7.9 13.2 98 0.2 S 35 52 19 28 1007.4 1007.3 11.0
24/10:30pm 13.4 7.3 13.1 98 0.2 S 37 54 20 29 1007.3 1007.2 11.0
24/10:24pm 13.4 7.7 13.1 98 0.2 S 35 54 19 29 1007.3 1007.2 11.0
24/10:21pm 13.5 7.9 13.2 98 0.2 SSW 35 48 19 26 1007.2 1007.1 11.0
24/10:01pm 13.5 7.9 13.2 98 0.2 SSW 35 54 19 29 1007.2 1007.1 11.0
24/10:00pm 13.6 7.6 13.3 98 0.2 SSW 37 54 20 29 1007.2 1007.1 10.8
24/09:30pm 13.8 8.3 13.5 98 0.2 SSW 35 59 19 32 1007.1 1007.0 10.0
24/09:02pm 15.2 11.1 14.9 98 0.2 S 30 54 16 29 1006.3 1006.2 7.8
24/09:00pm 15.4 11.0 15.1 98 0.2 S 32 54 17 29 1006.1 1006.0 7.8
24/08:37pm 15.9 11.7 15.6 98 0.2 S 32 54 17 29 1004.6 1004.5 7.6
24/08:30pm 17.2 15.0 16.9 98 0.2 SW 24 39 13 21 1004.3 1004.2 7.6
24/08:20pm 18.1 17.6 17.8 98 0.2 SW 17 33 9 18 1003.7 1003.5 7.6
24/08:00pm 18.7 21.3 18.4 98 0.2 NNE 2 7 1 4 1003.0 1002.8 7.6
24/07:50pm 18.5 20.3 18.2 98 0.2 NE 6 7 3 4 1002.8 1002.6 7.6
24/07:30pm 18.7 20.0 18.4 98 0.2 NNE 9 13 5 7 1002.5 1002.3 7.6
24/07:00pm 18.4 18.0 18.1 98 0.2 NNE 17 24 9 13 1002.1 1001.9 7.6
24/06:58pm 18.4 17.6 18.1 98 0.2 NNE 19 24 10 13 1002.1 1001.9 7.6
24/06:30pm 18.3 17.5 18.0 98 0.2 NNE 19 24 10 13 1002.2 1002.0 7.6
24/06:00pm 18.5 18.2 18.2 98 0.2 NNE 17 22 9 12 1001.8 1001.6 7.6
24/05:37pm 18.6 17.7 18.3 98 0.2 N 20 30 11 16 1001.9 1001.7 7.6
24/05:30pm 18.5 17.6 18.2 98 0.2 NE 20 30 11 16 1001.6 1001.4 7.6
24/05:26pm 18.5 17.6 18.2 98 0.2 ENE 20 26 11 14 1000.9 1000.8 7.6
24/05:22pm 18.4 17.5 18.1 98 0.2 ENE 20 26 11 14 1000.7 1000.6 7.2
24/05:00pm 18.6 18.3 18.3 98 0.2 N 17 26 9 14 1002.7 1002.5 5.8
24/04:53pm 18.8 19.0 18.5 98 0.2 N 15 22 8 12 1002.5 1002.3 4.8
24/04:30pm 19.3 19.7 19.0 98 0.2 NNE 15 20 8 11 1001.8 1001.6 4.2
24/04:00pm 19.9 21.0 19.6 98 0.2 NNE 13 17 7 9 1001.5 1001.3 4.2
24/03:30pm 19.9 21.0 19.6 98 0.2 NNE 13 19 7 10 1001.5 1001.3 4.2
24/03:00pm 19.6 20.1 19.3 98 0.2 NE 15 19 8 10 1001.7 1001.5 4.2
24/02:30pm 19.0 18.9 18.7 98 0.2 ENE 17 20 9 11 1002.1 1001.9 4.0
24/02:00pm 19.6 20.5 19.3 98 0.2 N 13 19 7 10 1002.2 1002.0 4.0
24/01:30pm 19.9 21.5 19.1 95 0.5 N 9 13 5 7 1002.4 1002.2 3.6
24/01:15pm 19.7 20.3 18.7 94 0.6 NW 13 20 7 11 1002.6 1002.4 3.6
24/01:00pm 19.7 19.5 19.4 98 0.2 WNW 19 32 10 17 1002.8 1002.6 2.8
24/12:52pm 20.2 20.4 19.4 95 0.5 WNW 17 32 9 17 1003.2 1003.0 1.2
24/12:30pm 21.5 20.9 18.5 83 1.9 NNE 19 28 10 15 1002.3 1002.1 0.0
24/12:00pm 22.6 21.2 18.8 79 2.4 NNE 24 32 13 17 1002.4 1002.2 0.0
24/11:30am 22.3 21.3 18.9 81 2.2 NNE 22 32 12 17 1002.4 1002.2 0.0
24/11:00am 22.0 20.5 19.4 85 1.7 NNE 26 32 14 17 1002.8 1002.6 0.0
24/10:30am 21.3 20.5 19.2 88 1.3 NNE 22 30 12 16 1003.2 1003.0 0.0
24/10:00am 21.2 19.7 19.5 90 1.1 NNE 26 33 14 18 1003.4 1003.2 0.0
24/09:30am 20.1 19.9 19.3 95 0.5 NNE 19 28 10 15 1003.4 1003.2 0.0
24/09:00am 19.7 19.9 19.4 98 0.2 NNE 17 24 9 13 1003.7 1003.5 1.4
24/08:30am 19.0 19.3 18.7 98 0.2 NNE 15 19 8 10 1004.1 1003.9 1.4
24/08:00am 18.5 18.2 18.2 98 0.2 NNE 17 24 9 13 1004.1 1003.9 1.4
24/07:30am 18.2 17.7 17.9 98 0.2 N 17 22 9 12 1004.2 1004.1 1.4
24/07:00am 17.9 16.7 17.6 98 0.2 N 20 28 11 15 1003.8 1003.6 1.4
24/06:30am 17.5 16.7 17.2 98 0.2 NNE 17 22 9 12 1003.4 1003.2 1.4
24/06:00am 17.6 16.5 17.3 98 0.2 NNE 19 24 10 13 1003.6 1003.4 1.4
24/05:30am 17.6 17.6 17.3 98 0.2 NNE 13 17 7 9 1003.9 1003.7 1.4
24/05:00am 17.8 19.3 17.5 98 0.2 NNW 6 9 3 5 1004.5 1004.4 1.4
24/04:30am 17.8 19.1 17.5 98 0.2 N 7 13 4 7 1004.4 1004.3 1.4
24/04:00am 17.8 17.9 17.5 98 0.2 NE 13 19 7 10 1004.8 1004.7 1.2
24/03:58am 17.8 17.9 17.5 98 0.2 NNE 13 19 7 10 1004.9 1004.8 1.2
24/03:42am 17.9 17.7 17.6 98 0.2 NE 15 20 8 11 1005.5 1005.4 1.0
24/03:41am 17.9 17.7 17.6 98 0.2 NE 15 20 8 11 1005.4 1005.3 1.0
24/03:30am 18.0 18.2 17.7 98 0.2 NE 13 17 7 9 1005.3 1005.2 0.8
24/03:16am 18.1 18.7 17.8 98 0.2 NNE 11 13 6 7 1006.3 1006.2 0.4
24/03:00am 18.1 19.1 17.8 98 0.2 NE 9 13 5 7 1006.2 1006.1 0.2
24/02:30am 18.2 18.1 17.9 98 0.2 NNE 15 20 8 11 1006.2 1006.1 0.0
24/02:00am 18.2 17.4 17.9 98 0.2 NNE 19 24 10 13 1006.2 1006.1 0.0
24/01:30am 18.4 17.6 18.1 98 0.2 NNE 19 28 10 15 1006.3 1006.2 0.0
24/01:00am 18.6 17.0 18.3 98 0.2 NNE 24 33 13 18 1006.7 1006.6 0.0
24/12:30am 18.9 17.0 18.6 98 0.2 NNE 26 39 14 21 1007.1 1007.0 0.0
24/12:08am 19.2 16.1 18.9 98 0.2 NNE 33 46 18 25 1007.1 1007.0 0.0
24/12:06am 19.2 15.8 18.9 98 0.2 NNE 35 54 19 29 1007.2 1007.1 0.0
24/12:00am 19.3 15.5 19.0 98 0.2 NNE 37 54 20 29 1007.3 1007.2 0.0
 
Date/Time
EDT
Temp
°C
App
Temp
°C
Dew
Point
°C
Rel
Hum
%
Delta-T
°C
Wind Press
QNH
hPa
Press
MSL
hPa
Rain since
9am
mm
Dir  Spd
km/h
Gust
km/h
Spd
kts
Gust
kts
23/11:48pm 19.3 15.9 19.0 98 0.2 NNE 35 54 19 29 1007.4 1007.3 0.0
23/11:30pm 19.4 16.0 19.1 98 0.2 NNE 35 52 19 28 1007.5 1007.4 0.0
23/11:28pm 19.4 16.0 19.1 98 0.2 NNE 35 52 19 28 1007.5 1007.4 0.0
23/11:24pm 19.3 16.3 19.0 98 0.2 NNE 33 50 18 27 1007.5 1007.4 0.0
23/11:13pm 19.3 16.2 18.8 97 0.3 NNE 33 52 18 28 1007.6 1007.5 0.0
23/11:00pm 19.3 16.2 18.8 97 0.3 NNE 33 46 18 25 1007.9 1007.8 0.0
23/10:30pm 19.2 16.3 18.9 98 0.2 NE 32 43 17 23 1008.3 1008.2 0.0
23/10:00pm 18.7 16.7 18.4 98 0.2 NNE 26 37 14 20 1008.4 1008.3 0.0
23/09:30pm 18.7 17.5 18.4 98 0.2 NNE 22 37 12 20 1008.6 1008.5 0.0
23/09:00pm 18.7 17.5 18.4 98 0.2 NNE 22 32 12 17 1008.9 1008.8 0.0
23/08:30pm 18.8 17.3 18.5 98 0.2 NNE 24 33 13 18 1008.8 1008.7 0.0
23/08:00pm 18.9 18.2 18.6 98 0.2 NE 20 30 11 16 1008.7 1008.6 0.0
23/07:30pm 19.0 17.6 18.7 98 0.2 NNE 24 35 13 19 1008.7 1008.6 0.0
23/07:01pm 19.0 17.6 18.7 98 0.2 NE 24 33 13 18 1008.6 1008.5 0.0
23/07:00pm 19.0 17.6 18.7 98 0.2 NE 24 33 13 18 1008.6 1008.5 0.0
23/06:30pm 19.3 17.4 18.6 96 0.4 NNE 26 43 14 23 1008.4 1008.3 0.0
23/06:00pm 19.5 17.6 18.5 94 0.6 NNE 26 39 14 21 1008.3 1008.2 0.0
23/05:30pm 20.2 17.9 18.5 90 1.1 NNE 28 41 15 22 1008.2 1008.1 0.0
23/05:00pm 20.7 17.9 18.3 86 1.5 NE 30 39 16 21 1008.4 1008.3 0.0
23/04:30pm 20.8 17.3 17.8 83 1.9 NE 33 44 18 24 1008.7 1008.6 0.0
23/04:02pm 21.0 18.2 18.2 84 1.7 NNE 30 48 16 26 1008.8 1008.7 0.0
23/04:00pm 21.0 18.2 18.2 84 1.7 NNE 30 41 16 22 1008.8 1008.7 0.0
23/03:30pm 21.2 18.1 18.4 84 1.8 NNE 32 43 17 23 1008.8 1008.7 0.0
23/03:00pm 22.0 19.1 18.0 78 2.5 NNE 30 43 16 23 1009.1 1009.0 0.0
23/02:30pm 23.0 20.2 18.1 74 3.1 NE 30 41 16 22 1009.5 1009.4 0.0
23/02:04pm 22.1 18.5 17.7 76 2.7 NNE 33 52 18 28 1010.0 1009.9 0.0
23/02:00pm 21.9 17.7 17.1 74 3.0 NNE 35 44 19 24 1010.1 1010.0 0.0
23/01:30pm 23.0 19.8 17.2 70 3.6 NNE 30 43 16 23 1010.8 1010.7 0.0
23/01:00pm 22.3 19.3 16.8 71 3.4 NNE 28 39 15 21 1011.3 1011.2 0.0
23/12:30pm 22.5 20.3 17.8 75 2.9 NNE 26 35 14 19 1011.7 1011.6 0.0
23/12:00pm 22.0 19.7 18.4 80 2.3 NNE 28 37 15 20 1011.9 1011.8 0.0
23/11:30am 21.3 18.0 17.9 81 2.1 NNE 32 41 17 22 1012.1 1012.0 0.0
23/11:00am 21.4 19.6 17.8 80 2.2 NNE 24 32 13 17 1012.5 1012.4 0.0
23/10:30am 21.5 20.3 18.5 83 1.9 NNE 22 33 12 18 1012.7 1012.6 0.0
23/10:00am 20.4 18.5 17.6 84 1.7 NNE 24 33 13 18 1012.9 1012.8 0.0
23/09:30am 19.5 18.6 17.8 90 1.0 NNE 19 28 10 15 1013.2 1013.1 0.0
23/09:00am 18.9 18.4 17.7 93 0.7 NNE 17 24 9 13 1013.4 1013.3 0.0
23/08:30am 18.3 17.3 17.5 95 0.5 NNE 19 24 10 13 1013.5 1013.4 0.0
23/08:00am 17.5 17.5 17.2 98 0.2 NE 13 15 7 8 1013.6 1013.5 0.0
23/07:30am 16.7 17.7 16.4 98 0.2 NNE 6 11 3 6 1013.6 1013.5 0.0
23/07:00am 14.9 16.4 14.6 98 0.2 CALM 0 0 0 0 1013.5 1013.4 0.0
23/06:30am 13.9 13.9 13.6 98 0.2 SW 6 9 3 5 1013.5 1013.4 0.0
23/06:00am 13.6 13.5 13.3 98 0.2 SW 6 7 3 4 1012.8 1012.7 0.0
23/05:30am 13.7 14.8 13.4 98 0.2 CALM 0 0 0 0 1013.0 1012.9 0.0
23/05:00am 13.7 14.8 13.4 98 0.2 CALM 0 0 0 0 1012.7 1012.6 0.0
23/04:30am 14.6 14.8 14.3 98 0.2 SSW 6 7 3 4 1012.4 1012.3 0.0
23/04:00am 15.0 15.4 14.7 98 0.2 WSW 6 9 3 5 1012.7 1012.6 0.0
23/03:30am 15.3 15.8 15.0 98 0.2 WSW 6 7 3 4 1012.7 1012.6 0.0
23/03:01am 15.8 16.9 15.5 98 0.2 WSW 4 6 2 3 1012.8 1012.7 0.0
23/03:00am 15.8 16.5 15.5 98 0.2 WSW 6 6 3 3 1012.8 1012.7 0.0
23/02:30am 16.2 17.4 15.9 98 0.2 SW 4 9 2 5 1013.3 1013.2 0.0
23/02:00am 16.7 17.7 16.4 98 0.2 SSW 6 7 3 4 1013.7 1013.6 0.0
23/01:30am 16.3 17.0 16.0 98 0.2 SW 7 9 4 5 1014.2 1014.1 0.0
23/01:00am 15.7 16.3 15.4 98 0.2 SW 6 9 3 5 1014.3 1014.2 0.0

Other formats

Comma delimited format used in spreadsheet applications
http://www.bom.gov.au/fwo/IDN60801/IDN60801.94751.axf

JavaScript Object Notation format (JSON) in row-major order
http://www.bom.gov.au/fwo/IDN60801/IDN60801.94751.json

Data quality

Most of these data are generated automatically and are frequently updated. Quality checks on data are not normally performed. It is possible for incorrect values to appear. Refer to information at About Latest Weather Observations and please check the disclaimer before using these data.